Time;durP1;ratioP1;P1;durP2;ratioP2;P2;SDS_P1;SDS_P2;PMS_P1;PMS_P2;Temp;Humidity;BMP_temperature;BMP_pressure;BME280_temperature;BME280_humidity;BME280_pressure;Samples;Min_cycle;Max_cycle;Signal;HPM_P1;HPM_P2
2023/08/14 00:02:11;;;;;;;5.38;3.45;;;21.90;82.60;;;21.12;100.00;96143.22;4958765;28;20515;-62
2023/08/14 00:04:36;;;;;;;6.35;3.88;;;22.00;82.50;;;21.12;100.00;96143.22;4947311;28;20494;-63
2023/08/14 00:07:02;;;;;;;5.20;3.60;;;22.00;82.30;;;21.12;100.00;96145.88;4947429;28;20058;-62
2023/08/14 00:09:28;;;;;;;5.78;3.85;;;22.00;82.40;;;21.09;100.00;96141.03;4915492;28;20138;-62
2023/08/14 00:11:54;;;;;;;6.10;3.45;;;21.90;82.40;;;21.05;100.00;96135.41;4948811;28;20028;-63
2023/08/14 00:14:19;;;;;;;5.60;3.30;;;21.90;82.60;;;21.02;100.00;96127.84;4913194;28;20422;-62
2023/08/14 00:16:45;;;;;;;5.45;3.38;;;21.80;82.50;;;21.00;100.00;96129.19;4947551;28;20506;-63
2023/08/14 00:19:11;;;;;;;5.15;3.35;;;21.80;82.60;;;20.97;100.00;96127.00;4931221;28;20176;-62
2023/08/14 00:21:37;;;;;;;5.32;3.40;;;21.80;82.90;;;20.97;100.00;96121.66;4948759;28;20047;-62
2023/08/14 00:24:02;;;;;;;9.77;3.30;;;21.80;82.80;;;20.96;100.00;96120.06;4917739;29;20613;-63
2023/08/14 00:26:28;;;;;;;7.15;3.20;;;21.70;82.70;;;20.94;100.00;96122.19;4947169;28;20106;-62
2023/08/14 00:28:54;;;;;;;5.28;3.80;;;21.70;82.70;;;20.91;100.00;96122.69;4947285;28;20159;-62
2023/08/14 00:31:20;;;;;;;5.45;3.50;;;21.70;82.80;;;20.87;100.00;96122.41;4947407;28;20042;-62
2023/08/14 00:33:45;;;;;;;4.15;3.35;;;21.60;82.90;;;20.86;100.00;96120.78;4930951;29;20035;-62
2023/08/14 00:36:11;;;;;;;6.40;3.00;;;21.60;82.80;;;20.84;100.00;96111.41;4946052;28;20474;-62
2023/08/14 00:38:37;;;;;;;4.75;3.10;;;21.60;82.80;;;20.78;100.00;96116.69;4946670;28;20566;-62
2023/08/14 00:41:02;;;;;;;5.60;3.35;;;21.60;82.80;;;20.75;100.00;96114.50;4946774;28;20581;-62
2023/08/14 00:43:28;;;;;;;5.00;3.03;;;21.60;82.90;;;20.71;100.00;96115.28;4945318;28;20043;-62
2023/08/14 00:45:57;;;;;;;5.25;3.08;;;21.50;82.90;;;20.68;100.00;96113.91;4947372;28;20046;-62
2023/08/14 00:48:24;;;;;;;4.07;2.80;;;21.50;82.90;;;20.68;100.00;96100.56;4946898;28;20050;-62
2023/08/14 00:50:50;;;;;;;4.50;3.58;;;21.50;82.90;;;20.65;100.00;96101.06;4931538;28;20387;-62
2023/08/14 00:53:16;;;;;;;4.57;2.78;;;21.50;82.90;;;20.64;100.00;96102.13;4915277;28;20129;-62
2023/08/14 00:55:42;;;;;;;3.88;2.47;;;21.50;82.50;;;20.61;100.00;96101.81;4946572;28;20042;-62
2023/08/14 00:58:08;;;;;;;3.08;2.22;;;21.40;82.30;;;20.56;100.00;96094.53;4946693;28;20043;-62
2023/08/14 01:00:35;;;;;;;3.88;2.33;;;21.40;82.20;;;20.56;100.00;96081.16;4928735;28;20509;-62
2023/08/14 01:03:01;;;;;;;4.47;2.20;;;21.40;81.80;;;20.52;100.00;96080.06;4931943;28;20165;-62
2023/08/14 01:05:27;;;;;;;3.58;1.90;;;21.30;82.10;;;20.49;100.00;96084.06;4911457;28;20051;-62
2023/08/14 01:07:53;;;;;;;3.72;2.08;;;21.30;81.50;;;20.48;100.00;96092.31;4946520;28;20111;-62
2023/08/14 01:10:18;;;;;;;5.20;1.88;;;21.30;81.60;;;20.47;100.00;96085.38;4928336;28;20031;-62
2023/08/14 01:13:08;;;;;;;2.50;1.67;;;21.30;81.50;;;20.44;100.00;96073.31;4915474;28;20608;-62
2023/08/14 01:15:41;;;;;;;4.00;1.67;;;21.30;80.90;;;20.41;100.00;96076.50;4930572;28;20074;-62
2023/08/14 01:18:09;;;;;;;2.40;1.67;;;21.20;81.30;;;20.34;100.00;96065.16;4915090;29;20059;-62
2023/08/14 01:20:35;;;;;;;2.85;1.52;;;21.10;81.40;;;20.33;100.00;96068.06;4945556;28;20063;-62
2023/08/14 01:23:17;;;;;;;3.97;1.63;;;21.10;81.40;;;20.30;100.00;96073.91;4930026;29;20123;-63
2023/08/14 01:25:43;;;;;;;5.25;1.73;;;21.10;81.70;;;20.22;100.00;96067.16;4961793;28;20092;-62
2023/08/14 01:28:08;;;;;;;7.22;1.77;;;21.00;82.10;;;20.16;100.00;96063.66;4945878;28;20054;-62
2023/08/14 01:30:34;;;;;;;3.42;1.75;;;21.00;82.00;;;20.10;100.00;96069.97;4929917;28;20035;-62
2023/08/14 01:33:00;;;;;;;3.75;1.60;;;20.90;82.30;;;20.07;100.00;96073.13;4945621;28;20503;-62
2023/08/14 01:35:27;;;;;;;3.33;1.77;;;20.90;82.10;;;20.03;100.00;96069.34;4927321;28;20103;-62
2023/08/14 01:38:03;;;;;;;5.38;1.95;;;20.80;82.30;;;20.00;100.00;96072.53;4930225;29;20059;-62
2023/08/14 01:40:54;;;;;;;3.45;1.73;;;20.80;82.30;;;19.99;100.00;96072.78;4945988;28;20090;-62
2023/08/14 01:43:26;;;;;;;4.30;1.95;;;20.80;82.40;;;19.99;100.00;96067.44;4943624;28;20042;-63
2023/08/14 01:45:52;;;;;;;2.97;1.95;;;20.80;82.30;;;19.97;100.00;96064.22;4930794;29;20702;-62
2023/08/14 01:48:18;;;;;;;3.20;2.13;;;20.80;82.20;;;19.93;100.00;96063.91;4945716;28;20031;-62
2023/08/14 01:50:44;;;;;;;2.97;2.08;;;20.70;82.10;;;19.88;100.00;96066.50;4929483;29;20626;-62
2023/08/14 01:53:10;;;;;;;5.28;2.28;;;20.60;81.90;;;19.81;100.00;96068.53;4928450;29;20510;-62
2023/08/14 01:55:35;;;;;;;4.60;2.55;;;20.60;81.90;;;19.76;100.00;96063.16;4929180;28;20830;-62
2023/08/14 01:58:01;;;;;;;5.75;2.20;;;20.50;81.90;;;19.70;100.00;96069.47;4945624;28;20039;-63
2023/08/14 02:00:29;;;;;;;3.83;2.38;;;20.40;81.70;;;19.68;100.00;96066.22;4928913;28;20164;-63
2023/08/14 02:02:57;;;;;;;4.32;2.25;;;20.50;81.90;;;19.66;100.00;96066.47;4946979;28;20027;-63
2023/08/14 02:05:22;;;;;;;4.93;2.08;;;20.50;82.20;;;19.64;100.00;96070.44;4929168;28;20035;-62
2023/08/14 02:07:48;;;;;;;5.40;1.90;;;20.40;82.00;;;19.60;100.00;96074.66;4945678;28;20564;-62
2023/08/14 02:10:14;;;;;;;3.58;1.55;;;20.40;81.90;;;19.57;100.00;96071.44;4949193;28;20043;-62
2023/08/14 02:12:43;;;;;;;4.53;1.83;;;20.50;81.90;;;19.57;100.00;96071.44;4946295;28;21461;-63
2023/08/14 02:15:09;;;;;;;4.72;1.50;;;20.40;82.10;;;19.54;100.00;96074.59;4930449;29;20046;-62
2023/08/14 02:17:37;;;;;;;2.45;1.65;;;20.30;81.90;;;19.50;100.00;96076.13;4929758;28;20054;-62
2023/08/14 02:20:03;;;;;;;4.65;1.20;;;20.30;82.00;;;19.45;100.00;96084.03;4948701;28;20035;-62
2023/08/14 02:22:29;;;;;;;6.25;1.85;;;20.30;82.20;;;19.39;100.00;96085.00;4932935;28;20031;-62
2023/08/14 02:24:54;;;;;;;2.97;2.03;;;20.20;82.00;;;19.32;100.00;96086.25;4933282;29;20066;-62
2023/08/14 02:27:20;;;;;;;4.25;1.80;;;20.10;82.30;;;19.32;100.00;96089.72;4948934;28;20521;-62
2023/08/14 02:29:46;;;;;;;4.25;2.25;;;20.20;82.30;;;19.34;100.00;96084.13;4933806;29;20035;-62
2023/08/14 02:32:12;;;;;;;3.70;2.00;;;20.10;82.40;;;19.33;100.00;96086.00;4950456;28;20196;-62
2023/08/14 02:34:48;;;;;;;3.95;1.83;;;20.10;82.40;;;19.31;100.00;96071.28;4949395;28;20031;-62
2023/08/14 02:37:15;;;;;;;3.38;2.10;;;20.10;82.60;;;19.23;100.00;96075.16;4947307;28;20058;-62
2023/08/14 02:39:41;;;;;;;3.42;1.65;;;20.10;83.00;;;19.19;100.00;96074.03;4935026;28;20046;-62
2023/08/14 02:42:07;;;;;;;4.40;2.00;;;20.00;83.20;;;19.20;100.00;96080.97;4932404;29;20039;-62
2023/08/14 02:44:33;;;;;;;3.25;1.58;;;20.10;83.00;;;19.23;100.00;96072.50;4932744;28;20035;-62
2023/08/14 02:47:02;;;;;;;3.90;1.73;;;20.10;83.10;;;19.25;100.00;96073.09;4934508;29;20038;-63
2023/08/14 02:49:27;;;;;;;11.88;9.32;;;20.10;83.10;;;19.23;100.00;96072.50;4948402;28;20039;-62
2023/08/14 02:51:53;;;;;;;12.57;11.25;;;20.10;82.80;;;19.20;100.00;96080.97;4931701;29;20570;-62
2023/08/14 02:54:19;;;;;;;18.85;11.38;;;20.10;82.90;;;19.20;100.00;96083.66;4949207;28;20031;-61
2023/08/14 02:56:45;;;;;;;6.43;3.20;;;20.10;82.70;;;19.20;100.00;96081.78;4947610;28;20062;-62
2023/08/14 02:59:11;;;;;;;3.25;1.60;;;20.10;82.90;;;19.24;100.00;96082.13;4949790;28;20060;-62
2023/08/14 03:01:39;;;;;;;4.43;1.98;;;20.10;83.10;;;19.25;100.00;96083.75;4929697;28;20469;-62
2023/08/14 03:04:05;;;;;;;6.82;1.70;;;20.10;82.90;;;19.25;100.00;96083.75;4933366;29;20031;-62
2023/08/14 03:06:31;;;;;;;2.40;1.58;;;20.20;83.00;;;19.24;100.00;96098.94;4949413;28;20047;-62
2023/08/14 03:09:00;;;;;;;2.80;1.55;;;20.10;82.90;;;19.26;100.00;96085.38;4916462;29;20123;-62
2023/08/14 03:11:26;;;;;;;3.15;1.90;;;20.10;82.80;;;19.22;100.00;96078.88;4939350;28;20031;-61
2023/08/14 03:13:51;;;;;;;3.05;1.50;;;20.10;83.00;;;19.19;100.00;96076.69;4948153;28;20254;-62
2023/08/14 03:16:17;;;;;;;4.13;1.50;;;20.10;83.20;;;19.18;100.00;96077.75;4932015;29;20531;-62
2023/08/14 03:18:43;;;;;;;3.80;1.60;;;20.10;83.20;;;19.17;100.00;96070.81;4963852;28;20070;-62
2023/08/14 03:21:08;;;;;;;4.78;1.52;;;20.10;83.30;;;19.14;100.00;96063.31;4932980;29;20431;-62
2023/08/14 03:23:35;;;;;;;5.40;1.70;;;20.10;83.40;;;19.09;100.00;96047.22;4947268;28;20480;-63
2023/08/14 03:26:04;;;;;;;2.42;1.50;;;20.00;83.60;;;19.05;100.00;96040.78;4931354;29;20418;-62
2023/08/14 03:28:30;;;;;;;5.03;1.58;;;20.00;83.80;;;19.00;100.00;96028.16;4915187;28;20039;-62
2023/08/14 03:30:55;;;;;;;1.92;1.40;;;20.00;83.90;;;19.01;100.00;96032.47;4931501;29;20047;-62
2023/08/14 03:33:21;;;;;;;3.70;1.52;;;20.00;83.80;;;19.03;100.00;96027.69;4928177;28;20074;-62
2023/08/14 03:35:47;;;;;;;1.98;1.48;;;20.10;83.50;;;19.03;100.00;96034.88;4931491;28;20051;-63
2023/08/14 03:38:13;;;;;;;3.58;1.70;;;20.00;83.40;;;19.06;100.00;96031.72;4947383;28;20095;-63
2023/08/14 03:40:38;;;;;;;2.53;1.48;;;20.10;83.20;;;19.06;100.00;96027.19;4947548;28;20086;-62
2023/08/14 03:43:04;;;;;;;2.97;1.58;;;20.00;83.10;;;19.06;100.00;96027.19;4948052;28;20406;-62
2023/08/14 03:45:30;;;;;;;2.53;1.63;;;20.10;83.30;;;19.04;100.00;96026.63;4931574;28;20136;-62
2023/08/14 03:47:56;;;;;;;4.65;1.65;;;20.00;83.30;;;19.02;100.00;96014.59;4931994;29;20055;-62
2023/08/14 03:50:21;;;;;;;4.63;1.50;;;19.90;83.60;;;19.04;100.00;96017.84;4948034;28;20031;-61
2023/08/14 03:52:50;;;;;;;3.05;1.48;;;20.00;83.40;;;19.04;100.00;96017.84;4948940;28;20085;-62
2023/08/14 03:55:16;;;;;;;3.15;1.73;;;20.00;83.40;;;18.98;100.00;96023.06;4948030;28;20403;-63
2023/08/14 03:57:42;;;;;;;2.13;1.55;;;20.00;83.40;;;18.98;100.00;96019.59;4931337;28;20031;-62
2023/08/14 04:00:08;;;;;;;4.20;1.60;;;20.00;83.50;;;18.96;100.00;96033.16;4912909;29;20219;-62
2023/08/14 04:02:34;;;;;;;2.70;1.63;;;20.00;83.60;;;18.97;100.00;96034.78;4928944;28;20036;-62
2023/08/14 04:04:59;;;;;;;2.45;1.63;;;20.00;83.60;;;18.97;100.00;96040.13;4948878;28;20046;-62
2023/08/14 04:07:25;;;;;;;2.45;1.60;;;20.00;83.30;;;18.99;100.00;96037.19;4947497;28;20027;-62
2023/08/14 04:09:51;;;;;;;2.80;1.77;;;20.00;83.40;;;19.03;100.00;96037.53;4915308;28;20031;-63
2023/08/14 04:12:17;;;;;;;4.22;1.55;;;20.00;83.20;;;19.01;100.00;96034.28;4947201;28;20565;-62
2023/08/14 04:14:43;;;;;;;1.88;1.52;;;20.00;83.30;;;19.03;100.00;96037.53;4947404;28;20063;-62
2023/08/14 04:17:09;;;;;;;3.13;1.65;;;20.00;83.00;;;19.04;100.00;96044.50;4946474;28;20493;-63
2023/08/14 04:19:35;;;;;;;4.38;1.70;;;20.10;83.00;;;19.04;100.00;96039.16;4945795;28;20039;-62
2023/08/14 04:22:01;;;;;;;4.85;1.70;;;20.10;83.20;;;19.00;100.00;96035.34;4948435;28;20603;-62
2023/08/14 04:24:27;;;;;;;4.22;1.67;;;20.00;83.40;;;19.01;100.00;96034.28;4931881;29;20066;-62
2023/08/14 04:26:52;;;;;;;7.07;2.00;;;20.10;83.40;;;19.02;100.00;96028.75;4947266;28;20043;-62
2023/08/14 04:29:18;;;;;;;3.28;1.60;;;20.10;83.30;;;19.04;100.00;96028.50;4948156;28;20038;-66
2023/08/14 04:31:45;;;;;;;4.35;1.50;;;20.10;83.30;;;19.07;100.00;96023.47;4947467;28;20035;-66
2023/08/14 04:34:10;;;;;;;2.83;1.70;;;20.10;83.10;;;19.09;100.00;96036.56;4931551;29;20082;-65
2023/08/14 04:36:36;;;;;;;2.08;1.23;;;20.20;83.10;;;19.10;100.00;96027.50;4947329;28;20090;-64
2023/08/14 04:39:03;;;;;;;2.83;1.25;;;20.20;83.00;;;19.13;100.00;96038.50;4947377;28;20434;-65
2023/08/14 04:41:29;;;;;;;2.42;1.10;;;20.20;82.90;;;19.18;100.00;96051.09;4929459;28;20031;-65
2023/08/14 04:43:55;;;;;;;2.95;1.42;;;20.30;82.80;;;19.21;100.00;96050.59;4947159;28;20540;-65
2023/08/14 04:46:35;;;;;;;3.25;1.10;;;20.40;82.80;;;19.25;100.00;96057.09;4947061;28;20045;-65
2023/08/14 04:49:01;;;;;;;1.33;1.17;;;20.30;82.70;;;19.26;100.00;96064.03;4946900;28;20039;-65
2023/08/14 04:51:26;;;;;;;2.85;1.20;;;20.40;82.80;;;19.30;100.00;96070.47;4914932;28;20393;-66
2023/08/14 04:53:54;;;;;;;2.72;1.30;;;20.40;82.50;;;19.31;100.00;96076.63;4947044;28;20050;-65
2023/08/14 04:56:19;;;;;;;2.13;1.33;;;20.50;82.60;;;19.35;100.00;96078.56;4930552;29;20616;-66
2023/08/14 04:58:47;;;;;;;14.73;1.40;;;20.50;82.40;;;19.39;100.00;96085.00;4947412;28;20063;-66
2023/08/14 05:01:13;;;;;;;2.45;1.30;;;20.60;82.20;;;19.42;100.00;96095.19;4946259;28;20031;-65
2023/08/14 05:03:40;;;;;;;2.53;0.98;;;20.60;82.30;;;19.46;100.00;96119.50;4947283;28;20088;-65
2023/08/14 05:06:06;;;;;;;2.40;1.45;;;20.60;82.30;;;19.47;100.00;96145.16;4927746;29;20111;-65
2023/08/14 05:08:31;;;;;;;3.60;0.90;;;20.50;82.50;;;19.44;100.00;96125.09;4913100;29;20652;-65
2023/08/14 05:10:57;;;;;;;6.82;1.13;;;20.50;82.90;;;19.44;100.00;96135.75;4946472;28;20062;-66
2023/08/14 05:13:23;;;;;;;3.47;1.10;;;20.60;82.70;;;19.47;100.00;96137.16;4930347;28;20504;-66
2023/08/14 05:15:50;;;;;;;2.65;1.17;;;20.60;82.70;;;19.47;100.00;96123.81;4931315;28;20039;-64
2023/08/14 05:18:16;;;;;;;3.28;1.20;;;20.60;82.90;;;19.46;100.00;96124.84;4931651;29;20045;-65
2023/08/14 05:20:49;;;;;;;2.00;1.25;;;20.60;83.20;;;19.50;100.00;96124.13;4933998;28;20035;-63
2023/08/14 05:23:15;;;;;;;2.45;1.50;;;20.70;83.00;;;19.56;100.00;96127.72;4930411;29;20086;-63
2023/08/14 05:25:44;;;;;;;6.22;3.00;;;20.80;82.50;;;19.63;100.00;96122.19;4915558;28;20115;-63
2023/08/14 05:28:09;;;;;;;12.48;9.40;;;20.90;82.70;;;19.65;100.00;96126.22;4946307;28;20047;-64
2023/08/14 05:30:35;;;;;;;4.45;2.50;;;20.90;82.90;;;19.69;100.00;96124.72;4947669;28;20533;-65
2023/08/14 05:33:01;;;;;;;3.10;1.40;;;21.00;82.50;;;19.75;100.00;96125.59;4916942;28;20034;-65
2023/08/14 05:35:28;;;;;;;2.53;1.33;;;21.00;82.50;;;19.79;100.00;96124.84;4946160;28;20041;-65
2023/08/14 05:37:56;;;;;;;2.92;1.20;;;21.10;82.70;;;19.85;100.00;96120.38;4930284;28;20031;-65
2023/08/14 05:40:22;;;;;;;10.38;9.00;;;21.10;81.80;;;19.92;100.00;96118.34;4930220;29;20063;-65
2023/08/14 05:43:05;;;;;;;12.80;11.07;;;21.30;81.80;;;20.01;100.00;96119.53;4930368;28;20035;-65
2023/08/14 05:45:43;;;;;;;5.28;2.95;;;21.40;81.70;;;20.12;100.00;96117.78;4941761;28;20077;-66
2023/08/14 05:48:08;;;;;;;3.10;1.60;;;21.60;81.20;;;20.19;100.00;96118.41;4930415;29;20031;-67
2023/08/14 05:50:34;;;;;;;2.97;1.25;;;21.70;80.90;;;20.30;100.00;96120.13;4946903;28;20031;-67
2023/08/14 05:53:03;;;;;;;2.38;1.25;;;21.80;80.60;;;20.38;100.00;96116.25;4934104;28;20192;-65
2023/08/14 05:55:33;;;;;;;2.60;1.10;;;21.90;79.90;;;20.49;100.00;96099.28;4934779;28;20050;-64
2023/08/14 05:57:59;;;;;;;1.60;1.05;;;22.10;79.60;;;20.59;100.00;96110.06;4952066;28;20035;-66
2023/08/14 06:00:25;;;;;;;2.10;1.08;;;22.20;78.70;;;20.72;100.00;96108.88;4933230;29;20031;-64
2023/08/14 06:02:51;;;;;;;1.85;1.10;;;22.50;78.40;;;20.86;100.00;96109.28;4971195;28;20126;-64
2023/08/14 06:05:17;;;;;;;1.23;0.90;;;22.60;77.80;;;20.95;100.00;96108.56;4933919;28;20035;-65
2023/08/14 06:07:43;;;;;;;3.22;0.90;;;22.70;77.20;;;21.08;100.00;96104.66;4957732;28;20132;-64
2023/08/14 06:10:09;;;;;;;1.38;0.82;;;22.90;77.00;;;21.25;100.00;96100.00;4935470;29;20083;-66
2023/08/14 06:12:35;;;;;;;1.83;1.10;;;23.10;76.10;;;21.35;100.00;96094.72;4920375;29;20035;-66
2023/08/14 06:15:00;;;;;;;1.95;1.10;;;23.10;75.10;;;21.46;100.00;96087.56;4941862;28;20031;-65
2023/08/14 06:17:27;;;;;;;2.55;1.02;;;23.30;75.00;;;21.62;100.00;96101.88;4938207;28;20051;-64
2023/08/14 06:19:52;;;;;;;3.17;1.15;;;23.50;74.70;;;21.76;100.00;96097.69;4937324;28;20043;-65
2023/08/14 06:22:19;;;;;;;4.00;3.10;;;23.80;74.00;;;21.85;100.00;96098.78;4953791;28;20115;-65
2023/08/14 06:24:45;;;;;;;14.40;12.20;;;23.90;73.40;;;22.00;100.00;96098.06;4960417;28;20525;-64
2023/08/14 06:27:10;;;;;;;3.05;2.15;;;24.10;73.20;;;22.05;100.00;96090.06;4961004;28;20245;-64
2023/08/14 06:29:36;;;;;;;3.63;2.17;;;23.80;73.40;;;22.11;100.00;96099.72;4958676;28;20106;-65
2023/08/14 06:32:02;;;;;;;3.88;2.28;;;24.00;73.50;;;22.23;100.00;96102.22;4943747;28;20534;-64
2023/08/14 06:34:28;;;;;;;29.90;23.25;;;24.10;72.50;;;22.32;100.00;96095.25;4957909;28;20043;-65
2023/08/14 06:36:54;;;;;;;5.68;4.20;;;24.40;72.70;;;22.43;100.00;96080.84;4958768;28;20443;-64
2023/08/14 06:39:20;;;;;;;5.07;2.40;;;24.60;72.30;;;22.58;100.00;96088.09;4940820;28;20042;-67
2023/08/14 06:41:45;;;;;;;4.72;1.98;;;24.80;70.70;;;22.70;100.00;96094.03;4940570;29;20118;-65
2023/08/14 06:44:11;;;;;;;2.67;1.50;;;25.00;70.30;;;22.88;100.00;96087.38;4936449;28;20066;-65
2023/08/14 06:46:38;;;;;;;14.88;12.75;;;25.40;68.70;;;23.06;100.00;96089.50;4950315;28;20050;-65
2023/08/14 06:49:04;;;;;;;9.57;7.80;;;25.70;67.90;;;23.26;100.00;96090.59;4953716;28;20031;-64
2023/08/14 06:51:31;;;;;;;4.13;2.00;;;25.90;67.00;;;23.43;100.00;96093.81;4953405;28;20506;-64
2023/08/14 06:53:57;;;;;;;2.63;1.55;;;26.10;66.40;;;23.60;100.00;96089.00;4935641;28;20090;-65
2023/08/14 06:56:22;;;;;;;4.85;1.70;;;26.10;66.10;;;23.78;100.00;96090.31;4953626;28;20035;-64
2023/08/14 06:58:48;;;;;;;4.97;2.00;;;26.30;65.80;;;23.90;100.00;96085.41;4967642;28;20073;-66
2023/08/14 07:01:14;;;;;;;3.03;1.63;;;26.10;65.20;;;23.99;100.00;96081.09;4966092;28;20057;-65
2023/08/14 07:03:40;;;;;;;4.05;1.63;;;26.10;64.90;;;24.09;100.00;96086.44;4968684;28;20046;-65
2023/08/14 07:06:05;;;;;;;3.95;1.80;;;26.10;65.80;;;24.15;100.00;96095.25;4953207;28;20042;-66
2023/08/14 07:08:31;;;;;;;2.90;1.33;;;26.10;65.50;;;24.24;99.92;96093.63;4952605;28;20049;-65
2023/08/14 07:10:57;;;;;;;7.47;3.40;;;26.20;65.40;;;24.33;100.00;96094.69;4966318;28;20110;-66
2023/08/14 07:13:23;;;;;;;11.75;9.15;;;26.30;65.40;;;24.40;99.34;96089.00;4933212;28;20115;-68
2023/08/14 07:15:48;;;;;;;13.73;11.45;;;26.30;65.50;;;24.50;98.58;96090.84;4969389;28;20521;-67
2023/08/14 07:18:17;;;;;;;12.75;10.05;;;26.40;64.90;;;24.58;97.16;96092.94;4968600;28;20690;-68
2023/08/14 07:20:45;;;;;;;4.63;3.28;;;26.50;64.60;;;24.65;96.97;96085.38;4961374;28;20026;-67
2023/08/14 07:23:12;;;;;;;2.55;1.42;;;26.60;64.40;;;24.70;95.68;96088.84;4935999;28;20038;-66
2023/08/14 07:25:38;;;;;;;4.80;1.90;;;26.60;63.60;;;24.83;96.55;96092.78;4952369;28;20045;-66
2023/08/14 07:28:04;;;;;;;7.57;4.63;;;26.80;65.00;;;24.96;95.70;96091.38;4947766;28;20406;-67
2023/08/14 07:30:30;;;;;;;8.98;4.32;;;27.00;63.90;;;25.07;94.54;96086.72;4936360;28;20039;-67
2023/08/14 07:32:56;;;;;;;4.85;2.78;;;27.10;63.30;;;25.19;93.51;96087.19;4950493;28;20062;-64
2023/08/14 07:35:22;;;;;;;7.55;2.88;;;27.30;62.30;;;25.31;92.00;96084.91;4944127;28;20050;-64
2023/08/14 07:37:47;;;;;;;4.20;1.17;;;27.40;60.90;;;25.42;91.00;96074.88;4965795;28;20778;-65
2023/08/14 07:40:13;;;;;;;3.42;1.50;;;27.60;60.90;;;25.56;90.59;96071.19;4939022;28;20549;-64
2023/08/14 07:42:39;;;;;;;2.95;1.25;;;27.70;61.20;;;25.74;90.25;96077.00;4959731;28;20509;-64
2023/08/14 07:45:05;;;;;;;2.35;1.30;;;28.00;60.90;;;25.94;89.79;96090.25;4967268;28;20057;-64
2023/08/14 07:47:31;;;;;;;3.22;1.50;;;28.30;60.20;;;26.10;87.32;96089.00;4966133;28;20050;-65
2023/08/14 07:49:57;;;;;;;2.60;1.30;;;28.50;58.60;;;26.23;85.40;96090.97;4959399;28;20039;-64
2023/08/14 07:52:24;;;;;;;1.70;0.98;;;28.50;57.20;;;26.36;84.34;96083.31;4923762;28;20070;-64
2023/08/14 07:54:50;;;;;;;4.53;1.20;;;28.60;57.30;;;26.53;83.76;96078.22;4966535;28;20185;-64
2023/08/14 07:57:15;;;;;;;4.22;1.40;;;28.90;56.90;;;26.70;82.89;96083.91;4935361;28;20047;-65
2023/08/14 07:59:41;;;;;;;3.15;0.80;;;29.10;56.70;;;26.92;82.58;96074.41;4966727;28;20035;-64
2023/08/14 08:02:07;;;;;;;2.60;0.90;;;29.50;55.70;;;26.96;80.54;96080.84;4964682;28;20385;-64
2023/08/14 08:04:36;;;;;;;2.00;0.80;;;29.10;55.40;;;27.06;80.31;96080.72;4967119;28;20194;-62
2023/08/14 08:07:03;;;;;;;2.90;1.75;;;29.40;55.90;;;27.19;79.41;96071.06;4965192;28;20039;-63
2023/08/14 08:09:29;;;;;;;4.68;4.20;;;29.40;55.80;;;27.28;78.51;96075.50;4970389;28;20050;-64
2023/08/14 08:11:56;;;;;;;2.97;1.80;;;29.60;54.70;;;27.37;77.57;96065.59;4966198;28;20179;-64
2023/08/14 08:14:22;;;;;;;4.05;3.33;;;29.60;54.60;;;27.53;78.12;96071.56;4963065;28;20562;-61
2023/08/14 08:16:49;;;;;;;2.60;1.77;;;30.00;55.50;;;27.75;77.06;96070.91;4949769;28;20027;-65
2023/08/14 08:19:14;;;;;;;4.53;2.42;;;30.30;53.80;;;27.96;77.17;96066.72;4933752;28;20040;-66
2023/08/14 08:21:40;;;;;;;2.70;1.33;;;30.60;54.50;;;28.18;77.01;96063.31;4960823;28;20031;-63
2023/08/14 08:24:06;;;;;;;2.58;1.10;;;30.80;53.50;;;28.29;76.04;96064.75;4946944;28;20559;-63
2023/08/14 08:26:32;;;;;;;7.18;3.88;;;30.80;52.50;;;28.53;75.56;96069.91;4937570;28;20041;-64
2023/08/14 08:28:58;;;;;;;6.65;3.47;;;31.40;52.70;;;28.85;74.28;96060.00;4963003;28;20059;-63
2023/08/14 08:31:23;;;;;;;3.95;1.38;;;31.80;51.00;;;29.07;72.66;96062.75;4954128;28;20078;-63
2023/08/14 08:33:49;;;;;;;1.70;0.95;;;32.10;49.50;;;29.32;71.40;96063.22;4947802;28;20124;-64
2023/08/14 08:36:18;;;;;;;2.90;1.02;;;32.30;49.20;;;29.46;69.64;96055.84;4950192;28;20045;-63
2023/08/14 08:38:45;;;;;;;1.52;1.10;;;32.30;47.50;;;29.51;69.84;96058.44;4951096;28;20035;-63
2023/08/14 08:41:32;;;;;;;1.42;1.00;;;32.10;49.00;;;29.60;68.19;96050.34;4960381;28;20042;-63
2023/08/14 08:44:15;;;;;;;1.38;0.90;;;32.10;48.70;;;29.58;64.76;96032.47;4941872;28;20031;-63
2023/08/14 08:47:03;;;;;;;1.40;0.93;;;32.10;48.50;;;29.60;64.40;96037.56;4941354;28;20037;-63
2023/08/14 08:49:29;;;;;;;3.47;2.72;;;31.90;48.90;;;29.55;67.07;96048.56;4947925;28;20380;-63
2023/08/14 08:51:55;;;;;;;3.60;1.73;;;31.80;49.00;;;29.52;66.30;96060.03;4959409;28;20107;-63
2023/08/14 08:54:20;;;;;;;3.25;1.70;;;31.70;48.60;;;29.51;66.14;96056.53;4965646;28;20031;-64
2023/08/14 08:56:46;;;;;;;3.60;1.25;;;31.70;48.60;;;29.51;65.64;96059.22;4960665;28;20031;-62
2023/08/14 08:59:13;;;;;;;2.85;1.25;;;31.90;48.20;;;29.52;66.14;96062.75;4963202;28;20057;-62
2023/08/14 09:01:40;;;;;;;2.42;1.10;;;32.00;49.20;;;29.58;64.89;96051.44;4947051;28;20035;-62
2023/08/14 09:04:06;;;;;;;1.52;1.10;;;32.00;47.70;;;29.63;64.98;96052.41;4947590;28;20023;-62
2023/08/14 09:06:32;;;;;;;14.65;12.45;;;31.80;49.60;;;29.64;65.86;96054.81;4950058;28;20517;-63
2023/08/14 09:08:58;;;;;;;6.40;5.35;;;31.90;49.50;;;29.65;65.85;96045.59;4961160;28;20030;-64
2023/08/14 09:11:24;;;;;;;3.65;2.20;;;31.90;49.60;;;29.62;66.14;96046.19;4965092;28;20081;-61
2023/08/14 09:13:50;;;;;;;3.28;1.80;;;31.80;50.00;;;29.65;66.24;96039.34;4953486;28;20035;-61
2023/08/14 09:16:16;;;;;;;2.10;1.60;;;31.80;50.20;;;29.67;66.04;96037.94;4954218;28;20030;-62
2023/08/14 09:18:44;;;;;;;3.80;3.42;;;31.90;50.30;;;29.72;65.13;96026.97;4967441;28;20026;-61
2023/08/14 09:21:13;;;;;;;4.43;3.30;;;31.90;49.90;;;29.74;64.57;96026.66;4963679;28;20078;-62
2023/08/14 09:23:41;;;;;;;3.87;1.80;;;31.90;49.50;;;29.76;65.33;96029.84;4965193;28;20028;-62
2023/08/14 09:26:07;;;;;;;2.38;1.27;;;32.00;48.90;;;29.78;65.02;96033.84;4952868;28;20026;-62
2023/08/14 09:28:33;;;;;;;2.83;1.13;;;32.00;49.40;;;29.81;63.40;96032.41;4931623;28;20028;-61
2023/08/14 09:31:09;;;;;;;3.95;1.00;;;32.10;47.50;;;29.88;62.02;96019.22;4951187;28;20078;-62
2023/08/14 09:33:43;;;;;;;3.60;1.23;;;32.20;48.30;;;29.93;59.93;95996.56;4964184;28;20030;-62
2023/08/14 09:36:09;;;;;;;2.53;1.27;;;32.30;46.40;;;29.88;61.76;96017.31;4949767;28;20132;-62
2023/08/14 09:38:36;;;;;;;2.75;1.20;;;32.10;46.50;;;29.99;60.97;96011.56;4965778;28;20766;-62
2023/08/14 09:41:02;;;;;;;2.45;1.30;;;32.50;46.70;;;30.09;61.06;96016.72;4967049;28;20490;-62
2023/08/14 09:43:29;;;;;;;1.10;1.00;;;32.60;46.20;;;30.25;61.24;96012.47;4950146;28;20031;-62
2023/08/14 09:46:04;;;;;;;3.53;1.45;;;32.90;46.10;;;30.49;59.69;96010.09;4965265;28;20041;-62
2023/08/14 09:48:41;;;;;;;3.80;1.60;;;33.30;46.40;;;30.74;59.72;96002.28;4968188;28;20063;-62
2023/08/14 09:51:13;;;;;;;2.08;1.40;;;33.60;45.70;;;30.96;58.88;95996.69;4965875;28;20027;-63
2023/08/14 09:53:50;;;;;;;1.88;1.13;;;34.00;43.80;;;31.17;57.33;95991.41;4964485;28;20129;-63
2023/08/14 09:56:17;;;;;;;2.00;1.30;;;34.30;44.00;;;31.43;59.50;96009.56;4965497;28;20039;-64
2023/08/14 09:58:43;;;;;;;2.80;1.65;;;34.80;43.20;;;31.86;57.83;95995.81;4946270;28;20059;-63
2023/08/14 10:01:11;;;;;;;2.38;1.40;;;36.10;40.80;;;32.42;57.15;96001.94;4933263;28;20035;-64
2023/08/14 10:03:37;;;;;;;1.75;1.33;;;37.10;39.70;;;32.94;55.16;95985.19;4948843;28;20034;-64
2023/08/14 10:06:03;;;;;;;1.75;1.02;;;37.90;36.70;;;33.48;53.70;95964.91;4950310;28;20043;-64
2023/08/14 10:08:30;;;;;;;1.95;1.10;;;38.60;34.80;;;33.95;52.08;95963.69;4949569;28;20041;-64
2023/08/14 10:10:55;;;;;;;1.75;1.15;;;39.20;34.10;;;34.41;50.70;95953.44;4950600;28;20086;-64
2023/08/14 10:13:21;;;;;;;1.98;1.17;;;39.70;32.80;;;34.65;49.69;95958.81;4949927;28;20043;-64